createdAt,value
2018-06-15T00:00:09.473Z,15.40
2018-06-15T00:02:37.569Z,15.40
2018-06-15T00:05:05.802Z,15.40
2018-06-15T00:07:33.620Z,15.40
2018-06-15T00:10:01.638Z,15.40
2018-06-15T00:12:29.573Z,15.30
2018-06-15T00:14:57.507Z,15.40
2018-06-15T00:17:25.353Z,15.40
2018-06-15T00:19:53.259Z,15.30
2018-06-15T00:22:21.120Z,15.40
2018-06-15T00:24:49.037Z,15.40
2018-06-15T00:27:16.950Z,15.40
2018-06-15T00:29:44.818Z,15.30
2018-06-15T00:32:12.729Z,15.30
2018-06-15T00:34:40.608Z,15.30
2018-06-15T00:37:08.469Z,15.30
2018-06-15T00:39:36.365Z,15.30
2018-06-15T00:44:32.133Z,15.30
2018-06-15T00:47:00.049Z,15.30
2018-06-15T00:49:27.890Z,15.30
2018-06-15T00:51:55.880Z,15.30
2018-06-15T00:54:23.784Z,15.30
2018-06-15T00:57:09.021Z,15.20
2018-06-15T00:59:36.890Z,15.30
2018-06-15T01:02:04.801Z,15.20
2018-06-15T01:04:32.739Z,15.20
2018-06-15T01:07:00.613Z,15.30
2018-06-15T01:09:28.444Z,15.30
2018-06-15T01:11:56.369Z,15.20
2018-06-15T01:14:24.324Z,15.20
2018-06-15T01:16:52.300Z,15.20
2018-06-15T01:19:20.269Z,15.20
2018-06-15T01:21:48.144Z,15.20
2018-06-15T01:24:16.100Z,15.20
2018-06-15T01:26:44.090Z,15.20
2018-06-15T01:29:11.945Z,15.20
2018-06-15T01:31:39.885Z,15.20
2018-06-15T01:34:07.780Z,15.20
2018-06-15T01:36:35.587Z,15.20
2018-06-15T01:39:06.200Z,15.20
2018-06-15T01:41:34.436Z,15.10
2018-06-15T01:44:02.249Z,15.10
2018-06-15T01:46:30.197Z,15.10
2018-06-15T01:48:58.111Z,15.10
2018-06-15T01:51:26.049Z,15.00
2018-06-15T01:56:21.688Z,15.00
2018-06-15T01:58:49.620Z,14.90
2018-06-15T02:01:17.570Z,14.90
2018-06-15T02:03:45.395Z,14.90
2018-06-15T02:06:13.330Z,14.80
2018-06-15T02:08:41.492Z,14.80
2018-06-15T02:11:09.328Z,14.80
2018-06-15T02:13:37.227Z,14.80
2018-06-15T02:16:05.284Z,14.80
2018-06-15T02:18:33.397Z,14.80
2018-06-15T02:21:01.262Z,14.90
2018-06-15T02:23:29.581Z,14.90
2018-06-15T02:25:57.541Z,15.00
2018-06-15T02:28:25.383Z,15.00
2018-06-15T02:30:53.234Z,15.00
2018-06-15T02:33:21.262Z,15.00
2018-06-15T02:35:49.202Z,15.00
2018-06-15T02:38:17.289Z,15.00
2018-06-15T02:40:45.194Z,15.00
2018-06-15T02:43:13.005Z,15.00
2018-06-15T02:45:40.865Z,15.00
2018-06-15T02:50:36.641Z,15.00
2018-06-15T02:53:04.725Z,15.00
2018-06-15T02:55:33.056Z,15.10
2018-06-15T02:58:01.092Z,15.10
2018-06-15T03:00:28.905Z,15.10
2018-06-15T03:07:52.603Z,15.10
2018-06-15T03:10:20.429Z,15.10
2018-06-15T03:12:48.346Z,15.10
2018-06-15T03:15:16.373Z,15.10
2018-06-15T03:17:44.248Z,15.20
2018-06-15T03:20:12.162Z,15.20
2018-06-15T03:22:40.001Z,15.10
2018-06-15T03:25:07.901Z,15.20
2018-06-15T03:27:35.820Z,15.20
2018-06-15T03:30:03.773Z,15.20
2018-06-15T03:32:31.616Z,15.20
2018-06-15T03:34:59.639Z,15.20
2018-06-15T03:39:55.477Z,15.20
2018-06-15T03:44:51.250Z,15.20
2018-06-15T03:47:19.172Z,15.30
2018-06-15T03:49:47.078Z,15.30
2018-06-15T03:52:15.041Z,15.40
2018-06-15T03:57:10.831Z,15.40
2018-06-15T03:59:38.679Z,15.50
2018-06-15T04:02:06.609Z,15.50
2018-06-15T04:04:34.557Z,15.60
2018-06-15T04:07:02.449Z,15.60
2018-06-15T04:09:30.338Z,15.70
2018-06-15T04:11:58.244Z,15.70
2018-06-15T04:14:26.137Z,15.70
2018-06-15T04:16:55.073Z,15.80
2018-06-15T04:19:23.058Z,15.80
2018-06-15T04:21:50.889Z,15.90
2018-06-15T04:24:18.740Z,15.90
2018-06-15T04:26:46.715Z,15.90
2018-06-15T04:29:14.606Z,16.00
2018-06-15T04:31:42.449Z,16.00
2018-06-15T04:34:10.388Z,16.00
2018-06-15T04:36:38.320Z,16.10
2018-06-15T04:39:08.081Z,16.10
2018-06-15T04:41:36.052Z,16.10
2018-06-15T04:44:03.986Z,16.20
2018-06-15T04:46:31.869Z,16.30
2018-06-15T04:48:59.682Z,16.30
2018-06-15T04:51:27.818Z,16.30
2018-06-15T04:53:55.668Z,16.40
2018-06-15T04:56:23.581Z,16.40
2018-06-15T04:58:51.304Z,16.50
2018-06-15T05:01:19.289Z,16.60
2018-06-15T05:03:47.165Z,16.60
2018-06-15T05:06:15.094Z,16.60
2018-06-15T05:08:43.056Z,16.70
2018-06-15T05:11:10.869Z,16.70
2018-06-15T05:13:38.704Z,16.80
2018-06-15T05:16:06.604Z,16.90
2018-06-15T05:18:34.505Z,17.00
2018-06-15T05:21:02.604Z,17.00
2018-06-15T05:23:30.693Z,17.10
2018-06-15T05:25:58.643Z,17.30
2018-06-15T05:28:26.495Z,17.40
2018-06-15T05:30:54.365Z,17.40
2018-06-15T05:33:22.824Z,17.40
2018-06-15T05:35:50.717Z,17.50
2018-06-15T05:38:18.591Z,17.50
2018-06-15T05:40:46.536Z,17.70
2018-06-15T05:43:14.770Z,17.90
2018-06-15T05:45:43.228Z,17.80
2018-06-15T05:48:11.421Z,17.90
2018-06-15T05:50:39.320Z,17.90
2018-06-15T05:53:08.672Z,18.10
2018-06-15T05:58:05.375Z,18.10
2018-06-15T06:00:34.425Z,18.30
2018-06-15T06:03:02.940Z,18.40
2018-06-15T06:05:30.888Z,18.60
2018-06-15T06:07:58.897Z,18.60
2018-06-15T06:10:27.012Z,18.50
2018-06-15T06:12:54.945Z,18.70
2018-06-15T06:15:24.755Z,18.90
2018-06-15T06:17:52.708Z,19.00
2018-06-15T06:22:48.464Z,19.10
2018-06-15T06:25:16.369Z,19.10
2018-06-15T06:27:44.312Z,18.90
2018-06-15T06:30:12.178Z,19.00
2018-06-15T06:32:40.206Z,19.30
2018-06-15T06:35:08.038Z,19.30
2018-06-15T06:37:35.860Z,19.30
2018-06-15T06:40:03.894Z,19.40
2018-06-15T06:42:31.790Z,19.50
2018-06-15T06:44:59.689Z,19.70
2018-06-15T06:47:27.552Z,19.60
2018-06-15T06:49:55.401Z,19.80
2018-06-15T06:52:23.296Z,19.90
2018-06-15T06:54:51.821Z,20.00
2018-06-15T06:57:19.764Z,20.00
2018-06-15T06:59:47.665Z,20.30
2018-06-15T07:02:15.541Z,20.50
2018-06-15T07:04:43.501Z,20.50
2018-06-15T07:07:11.341Z,20.40
2018-06-15T07:09:39.341Z,20.50
2018-06-15T07:12:07.341Z,20.80
2018-06-15T07:14:35.151Z,20.80
2018-06-15T07:17:03.033Z,21.20
2018-06-15T07:19:30.893Z,21.60
2018-06-15T07:21:58.763Z,21.70
2018-06-15T07:24:26.725Z,22.00
2018-06-15T07:26:54.607Z,22.00
2018-06-15T07:29:22.563Z,21.70
2018-06-15T07:31:50.409Z,21.70
2018-06-15T07:34:18.323Z,22.10
2018-06-15T07:36:46.181Z,22.00
2018-06-15T07:39:14.042Z,22.00
2018-06-15T07:41:41.957Z,21.80
2018-06-15T07:44:09.885Z,21.70
2018-06-15T07:46:37.821Z,22.10
2018-06-15T07:49:05.685Z,22.10
2018-06-15T07:51:33.524Z,22.30
2018-06-15T07:54:01.416Z,22.10
2018-06-15T07:56:29.251Z,21.80
2018-06-15T07:58:57.101Z,21.70
2018-06-15T08:01:25.045Z,22.10
2018-06-15T08:04:01.949Z,22.10
2018-06-15T08:06:30.221Z,21.60
2018-06-15T08:08:58.838Z,21.60
2018-06-15T08:11:26.677Z,21.40
2018-06-15T08:13:54.577Z,21.50
2018-06-15T08:16:22.464Z,21.30
2018-06-15T08:18:50.337Z,21.40
2018-06-15T08:21:18.153Z,21.20
2018-06-15T08:23:46.174Z,21.40
2018-06-15T08:26:14.133Z,21.60
2018-06-15T08:28:42.093Z,21.90
2018-06-15T08:31:09.970Z,22.50
2018-06-15T08:33:37.818Z,22.60
2018-06-15T08:36:05.856Z,22.80
2018-06-15T08:38:33.700Z,22.60
2018-06-15T08:41:01.656Z,22.50
2018-06-15T08:43:29.513Z,22.90
2018-06-15T08:45:57.369Z,23.00
2018-06-15T08:48:25.298Z,23.00
2018-06-15T08:50:53.130Z,23.30
2018-06-15T08:53:21.070Z,23.50
2018-06-15T08:55:48.909Z,23.50
2018-06-15T08:58:16.742Z,24.00
2018-06-15T09:00:44.556Z,24.30
2018-06-15T09:03:12.464Z,24.40
2018-06-15T09:05:40.340Z,24.20
2018-06-15T09:08:08.164Z,24.70
2018-06-15T09:10:36.064Z,25.00
2018-06-15T09:13:03.998Z,25.40
2018-06-15T09:15:31.861Z,25.40
2018-06-15T09:17:59.832Z,25.90
2018-06-15T09:20:27.707Z,26.10
2018-06-15T09:22:55.481Z,25.70
2018-06-15T09:27:51.097Z,25.40
2018-06-15T09:30:21.023Z,25.80
2018-06-15T09:32:48.826Z,26.40
2018-06-15T09:35:16.655Z,26.90
2018-06-15T09:37:44.532Z,26.50
2018-06-15T09:40:12.382Z,26.40
2018-06-15T09:42:40.300Z,27.00
2018-06-15T09:45:08.228Z,27.40
2018-06-15T09:47:36.057Z,27.60
2018-06-15T09:50:04.135Z,27.80
2018-06-15T09:52:31.965Z,27.90
2018-06-15T09:54:59.773Z,27.80
2018-06-15T09:57:27.717Z,26.80
2018-06-15T09:59:55.648Z,27.30
2018-06-15T10:02:23.561Z,28.00
2018-06-15T10:04:51.405Z,29.10
2018-06-15T10:07:19.357Z,29.60
2018-06-15T10:09:47.137Z,30.10
2018-06-15T10:12:14.956Z,29.40
2018-06-15T10:14:42.785Z,29.90
2018-06-15T10:17:10.673Z,29.00
2018-06-15T10:19:38.427Z,28.60
2018-06-15T10:22:06.433Z,28.50
2018-06-15T10:24:34.314Z,27.80
2018-06-15T10:27:02.133Z,27.50
2018-06-15T10:29:30.029Z,27.10
2018-06-15T10:31:57.952Z,27.40
2018-06-15T10:34:25.837Z,26.70
2018-06-15T10:36:53.656Z,26.60
2018-06-15T10:39:21.631Z,26.60
2018-06-15T10:41:49.590Z,26.90
2018-06-15T10:44:17.475Z,26.70
2018-06-15T10:46:45.352Z,27.00
2018-06-15T10:49:13.180Z,26.90
2018-06-15T10:51:41.109Z,26.90
2018-06-15T10:54:09.024Z,26.80
2018-06-15T10:56:36.841Z,27.20
2018-06-15T10:59:04.833Z,26.40
2018-06-15T11:01:32.660Z,26.80
2018-06-15T11:04:00.566Z,27.10
2018-06-15T11:06:28.389Z,27.70
2018-06-15T11:08:56.177Z,26.60
2018-06-15T11:11:24.099Z,26.30
2018-06-15T11:13:51.925Z,27.00
2018-06-15T11:16:19.820Z,27.20
2018-06-15T11:18:48.004Z,27.00
2018-06-15T11:21:15.811Z,26.30
2018-06-15T11:26:11.607Z,27.40
2018-06-15T11:28:39.481Z,27.10
2018-06-15T11:31:07.369Z,27.00
2018-06-15T11:33:35.356Z,27.00
2018-06-15T11:36:03.253Z,27.60
2018-06-15T11:38:31.208Z,28.10
2018-06-15T11:43:26.907Z,27.80
2018-06-15T11:45:54.763Z,28.30
2018-06-15T11:48:22.615Z,28.70
2018-06-15T11:50:50.455Z,28.40
2018-06-15T11:53:18.344Z,27.70
2018-06-15T11:55:46.250Z,27.40
2018-06-15T11:58:14.082Z,27.80
2018-06-15T12:03:09.802Z,27.10
2018-06-15T12:05:37.673Z,28.20
2018-06-15T12:08:05.836Z,28.70
2018-06-15T12:10:33.773Z,28.80
2018-06-15T12:13:01.665Z,29.20
2018-06-15T12:15:29.597Z,28.70
2018-06-15T12:18:01.443Z,28.70
2018-06-15T12:20:29.370Z,28.90
2018-06-15T12:22:57.301Z,29.10
2018-06-15T12:25:25.148Z,28.30
2018-06-15T12:27:52.982Z,28.90
2018-06-15T12:30:20.807Z,29.00
2018-06-15T12:32:48.684Z,28.30
2018-06-15T12:35:16.522Z,28.10
2018-06-15T12:37:44.377Z,27.60
2018-06-15T12:40:12.293Z,27.30
2018-06-15T12:42:40.146Z,27.30
2018-06-15T12:45:07.973Z,27.10
2018-06-15T12:47:35.914Z,27.30
2018-06-15T12:50:03.886Z,27.40
2018-06-15T12:52:31.761Z,26.90
2018-06-15T12:54:59.629Z,26.80
2018-06-15T12:57:27.524Z,27.20
2018-06-15T12:59:58.034Z,27.20
2018-06-15T13:02:25.972Z,27.20
2018-06-15T13:04:53.858Z,27.30
2018-06-15T13:07:21.680Z,27.50
2018-06-15T13:09:49.493Z,27.10
2018-06-15T13:12:17.340Z,27.40
2018-06-15T13:14:45.362Z,27.30
2018-06-15T13:17:13.249Z,27.60
2018-06-15T13:19:41.085Z,27.80
2018-06-15T13:22:08.932Z,28.40
2018-06-15T13:24:36.773Z,29.00
2018-06-15T13:27:04.647Z,27.90
2018-06-15T13:32:00.357Z,28.90
2018-06-15T13:34:28.190Z,28.80
2018-06-15T13:36:56.338Z,28.30
2018-06-15T13:39:24.201Z,28.40
2018-06-15T13:41:52.064Z,28.50
2018-06-15T13:44:19.913Z,28.30
2018-06-15T13:46:47.729Z,27.30
2018-06-15T13:49:15.553Z,28.00
2018-06-15T13:51:43.430Z,28.30
2018-06-15T13:54:11.273Z,28.40
2018-06-15T13:56:39.141Z,27.70
2018-06-15T13:59:13.507Z,27.50
2018-06-15T14:01:41.641Z,28.30
2018-06-15T14:04:09.638Z,28.20
2018-06-15T14:06:37.585Z,28.60
2018-06-15T14:09:09.974Z,28.90
2018-06-15T14:11:38.542Z,28.80
2018-06-15T14:14:06.401Z,28.30
2018-06-15T14:16:34.417Z,28.50
2018-06-15T14:19:02.449Z,28.30
2018-06-15T14:21:30.372Z,28.60
2018-06-15T14:23:58.266Z,28.30
2018-06-15T14:26:26.121Z,27.80
2018-06-15T14:28:54.062Z,28.10
2018-06-15T14:31:21.905Z,28.20
2018-06-15T14:33:49.730Z,27.40
2018-06-15T14:36:18.576Z,27.40
2018-06-15T14:38:48.465Z,27.10
2018-06-15T14:41:19.703Z,26.60
2018-06-15T14:43:47.789Z,26.50
2018-06-15T14:46:15.668Z,26.40
2018-06-15T14:48:43.497Z,26.20
2018-06-15T14:51:11.297Z,25.90
2018-06-15T14:53:39.212Z,25.80
2018-06-15T14:56:07.085Z,25.50
2018-06-15T14:58:34.975Z,25.50
2018-06-15T15:01:02.867Z,25.40
2018-06-15T15:03:30.750Z,25.40
2018-06-15T15:06:02.783Z,25.70
2018-06-15T15:08:30.673Z,25.60
2018-06-15T15:10:58.646Z,25.40
2018-06-15T15:13:26.489Z,25.00
2018-06-15T15:15:54.405Z,24.80
2018-06-15T15:18:22.337Z,24.70
2018-06-15T15:20:50.910Z,24.60
2018-06-15T15:23:20.108Z,24.60
2018-06-15T15:25:49.435Z,24.40
2018-06-15T15:28:18.954Z,24.20
2018-06-15T15:30:47.390Z,24.20
2018-06-15T15:33:16.302Z,24.00
2018-06-15T15:35:46.701Z,24.10
2018-06-15T15:38:14.649Z,24.20
2018-06-15T15:40:48.668Z,24.20
2018-06-15T15:43:17.198Z,24.20
2018-06-15T15:45:50.436Z,24.10
2018-06-15T15:48:23.583Z,24.10
2018-06-15T15:50:51.699Z,24.00
2018-06-15T15:53:19.791Z,23.90
2018-06-15T15:55:47.638Z,23.70
2018-06-15T15:58:15.565Z,23.70
2018-06-15T16:00:46.691Z,23.70
2018-06-15T16:03:15.171Z,23.80
2018-06-15T16:05:44.442Z,23.70
2018-06-15T16:08:12.377Z,23.70
2018-06-15T16:10:40.522Z,23.50
2018-06-15T16:13:08.410Z,23.50
2018-06-15T16:15:36.316Z,23.60
2018-06-15T16:18:04.421Z,23.40
2018-06-15T16:20:32.552Z,23.50
2018-06-15T16:23:00.437Z,23.70
2018-06-15T16:25:28.293Z,23.50
2018-06-15T16:27:56.160Z,23.40
2018-06-15T16:30:28.211Z,23.60
2018-06-15T16:32:56.108Z,23.50
2018-06-15T16:35:23.997Z,23.40
2018-06-15T16:37:51.896Z,23.50
2018-06-15T16:40:19.989Z,23.40
2018-06-15T16:42:47.805Z,23.30
2018-06-15T16:45:15.689Z,23.30
2018-06-15T16:47:43.645Z,23.30
2018-06-15T16:50:11.540Z,23.10
2018-06-15T16:52:39.404Z,23.20
2018-06-15T16:55:07.208Z,23.30
2018-06-15T16:57:35.093Z,23.30
2018-06-15T17:00:03.051Z,23.20
2018-06-15T17:02:30.947Z,23.10
2018-06-15T17:04:58.859Z,23.00
2018-06-15T17:07:26.697Z,23.10
2018-06-15T17:09:54.830Z,23.00
2018-06-15T17:14:52.529Z,23.00
2018-06-15T17:17:20.471Z,23.10
2018-06-15T17:19:48.466Z,23.00
2018-06-15T17:22:16.354Z,22.90
2018-06-15T17:24:44.292Z,22.90
2018-06-15T17:27:12.187Z,23.00
2018-06-15T17:32:08.584Z,22.80
2018-06-15T17:34:36.466Z,22.80
2018-06-15T17:37:04.547Z,22.90
2018-06-15T17:39:32.478Z,22.80
2018-06-15T17:42:00.412Z,22.80
2018-06-15T17:44:28.368Z,22.80
2018-06-15T17:46:56.277Z,22.80
2018-06-15T17:49:24.165Z,22.70
2018-06-15T17:51:51.979Z,22.70
2018-06-15T17:54:19.997Z,22.60
2018-06-15T17:59:15.809Z,22.60
2018-06-15T18:01:43.636Z,22.50
2018-06-15T18:04:11.588Z,22.50
2018-06-15T18:06:39.545Z,22.40
2018-06-15T18:09:09.341Z,22.50
2018-06-15T18:11:37.294Z,22.50
2018-06-15T18:14:05.252Z,22.50
2018-06-15T18:16:33.451Z,22.40
2018-06-15T18:19:01.297Z,22.40
2018-06-15T18:21:29.113Z,22.50
2018-06-15T18:23:57.089Z,22.40
2018-06-15T18:26:25.013Z,22.40
2018-06-15T18:28:52.885Z,22.40
2018-06-15T18:31:20.840Z,22.30
2018-06-15T18:33:49.758Z,22.30
2018-06-15T18:36:17.694Z,22.30
2018-06-15T18:38:45.585Z,22.20
2018-06-15T18:41:13.624Z,22.10
2018-06-15T18:43:41.581Z,22.20
2018-06-15T18:46:09.523Z,22.10
2018-06-15T18:48:37.417Z,22.10
2018-06-15T18:51:05.325Z,22.00
2018-06-15T18:53:33.209Z,22.00
2018-06-15T18:56:01.182Z,22.00
2018-06-15T18:58:29.097Z,21.90
2018-06-15T19:00:57.052Z,21.90
2018-06-15T19:03:24.960Z,21.80
2018-06-15T19:05:52.780Z,21.80
2018-06-15T19:08:20.670Z,21.60
2018-06-15T19:10:48.501Z,21.60
2018-06-15T19:13:16.413Z,21.60
2018-06-15T19:18:15.663Z,21.40
2018-06-15T19:20:43.646Z,21.40
2018-06-15T19:23:11.538Z,21.20
2018-06-15T19:25:39.417Z,21.20
2018-06-15T19:28:07.381Z,21.20
2018-06-15T19:30:35.234Z,21.10
2018-06-15T19:33:03.184Z,21.10
2018-06-15T19:35:31.081Z,21.00
2018-06-15T19:37:58.949Z,20.90
2018-06-15T19:40:26.786Z,20.90
2018-06-15T19:45:22.438Z,20.80
2018-06-15T19:47:50.379Z,20.70
2018-06-15T19:50:18.233Z,20.70
2018-06-15T19:52:46.112Z,20.60
2018-06-15T19:55:13.937Z,20.50
2018-06-15T19:57:41.877Z,20.50
2018-06-15T20:00:09.830Z,20.50
2018-06-15T20:02:37.693Z,20.40
2018-06-15T20:05:05.608Z,20.40
2018-06-15T20:07:33.462Z,20.40
2018-06-15T20:10:01.289Z,20.40
2018-06-15T20:12:29.160Z,20.30
2018-06-15T20:14:57.053Z,20.20
2018-06-15T20:17:27.585Z,20.10
2018-06-15T20:19:55.474Z,20.10
2018-06-15T20:22:25.258Z,20.10
2018-06-15T20:24:53.204Z,20.00
2018-06-15T20:27:21.688Z,20.00
2018-06-15T20:29:50.800Z,19.90
2018-06-15T20:32:23.427Z,19.90
2018-06-15T20:34:51.905Z,19.80
2018-06-15T20:37:22.866Z,19.80
2018-06-15T20:39:50.737Z,19.70
2018-06-15T20:42:25.839Z,19.70
2018-06-15T20:44:54.372Z,19.70
2018-06-15T20:47:23.454Z,19.60
2018-06-15T20:49:52.440Z,19.50
2018-06-15T20:52:20.386Z,19.50
2018-06-15T20:54:50.305Z,19.50
2018-06-15T20:57:18.866Z,19.40
2018-06-15T20:59:49.638Z,19.40
2018-06-15T21:02:20.210Z,19.40
2018-06-15T21:04:54.284Z,19.30
2018-06-15T21:07:22.267Z,19.30
2018-06-15T21:09:50.388Z,19.30
2018-06-15T21:12:18.255Z,19.20
2018-06-15T21:14:52.953Z,19.10
2018-06-15T21:17:21.446Z,19.10
2018-06-15T21:22:17.464Z,19.00
2018-06-15T21:24:47.125Z,18.90
2018-06-15T21:27:17.282Z,18.90
2018-06-15T21:29:48.565Z,18.80
2018-06-15T21:32:18.734Z,18.70
2018-06-15T21:34:46.877Z,18.60
2018-06-15T21:37:23.822Z,18.60
2018-06-15T21:39:52.147Z,18.40
2018-06-15T21:42:20.053Z,18.30
2018-06-15T21:44:52.461Z,18.20
2018-06-15T21:47:24.159Z,18.10
2018-06-15T21:49:55.040Z,18.10
2018-06-15T21:52:22.928Z,18.00
2018-06-15T21:54:56.231Z,17.90
2018-06-15T21:57:29.831Z,17.90
2018-06-15T21:59:59.567Z,17.90
2018-06-15T22:02:27.505Z,17.80
2018-06-15T22:04:55.425Z,17.90
2018-06-15T22:07:24.166Z,17.80
2018-06-15T22:09:52.041Z,17.80
2018-06-15T22:12:22.158Z,17.80
2018-06-15T22:14:50.105Z,17.80
2018-06-15T22:17:17.996Z,17.80
2018-06-15T22:19:47.081Z,17.80
2018-06-15T22:22:14.952Z,17.80
2018-06-15T22:24:42.786Z,17.80
2018-06-15T22:27:12.777Z,17.80
2018-06-15T22:29:40.851Z,17.80
2018-06-15T22:32:08.829Z,17.70
2018-06-15T22:34:36.653Z,17.70
2018-06-15T22:37:04.517Z,17.70
2018-06-15T22:39:32.470Z,17.60
2018-06-15T22:42:00.335Z,17.60
2018-06-15T22:44:28.217Z,17.50
2018-06-15T22:46:56.911Z,17.40
2018-06-15T22:49:29.726Z,17.40
2018-06-15T22:52:03.122Z,17.40
2018-06-15T22:54:31.009Z,17.40
2018-06-15T22:59:26.853Z,17.30
2018-06-15T23:01:54.790Z,17.30
2018-06-15T23:04:22.637Z,17.30
2018-06-15T23:06:50.609Z,17.20
2018-06-15T23:09:18.544Z,17.20
2018-06-15T23:11:46.377Z,17.20
2018-06-15T23:14:14.330Z,17.10
2018-06-15T23:16:42.293Z,17.10
2018-06-15T23:19:10.199Z,17.10
2018-06-15T23:21:38.113Z,17.10
2018-06-15T23:24:06.087Z,17.00
2018-06-15T23:29:01.793Z,17.00
2018-06-15T23:31:29.613Z,17.00
2018-06-15T23:33:57.539Z,17.00
2018-06-15T23:36:25.353Z,17.00
2018-06-15T23:38:53.238Z,16.90
2018-06-15T23:41:21.110Z,16.90
2018-06-15T23:43:49.048Z,16.90
2018-06-15T23:46:16.959Z,16.80
2018-06-15T23:48:44.785Z,16.80
2018-06-15T23:51:12.675Z,16.80
2018-06-15T23:56:08.477Z,16.60
2018-06-15T23:58:36.395Z,16.60
